sensor_id;sensor_type;location;lat;lon;timestamp;pressure;altitude;pressure_sealevel;temperature;humidity
57000;BME280;42891;50.006;21.964;2022-12-07T00:00:47;98458.88;;;2.36;94.96
57000;BME280;42891;50.006;21.964;2022-12-07T00:04:48;98459.78;;;2.49;94.17
57000;BME280;42891;50.006;21.964;2022-12-07T00:08:49;98448.28;;;2.39;93.56
57000;BME280;42891;50.006;21.964;2022-12-07T00:12:49;98468.00;;;2.43;94.28
57000;BME280;42891;50.006;21.964;2022-12-07T00:16:51;98467.13;;;2.57;93.66
57000;BME280;42891;50.006;21.964;2022-12-07T00:20:52;98458.97;;;2.34;94.11
57000;BME280;42891;50.006;21.964;2022-12-07T00:24:52;98476.78;;;2.55;94.03
57000;BME280;42891;50.006;21.964;2022-12-07T00:28:56;98475.66;;;2.59;93.25
57000;BME280;42891;50.006;21.964;2022-12-07T00:32:57;98465.28;;;2.45;93.61
57000;BME280;42891;50.006;21.964;2022-12-07T00:36:57;98475.06;;;2.41;94.25
57000;BME280;42891;50.006;21.964;2022-12-07T00:41:03;98471.47;;;2.56;94.23
57000;BME280;42891;50.006;21.964;2022-12-07T00:45:04;98467.72;;;2.61;93.76
57000;BME280;42891;50.006;21.964;2022-12-07T00:49:04;98466.22;;;2.44;94.54
57000;BME280;42891;50.006;21.964;2022-12-07T00:53:04;98468.41;;;2.22;95.52
57000;BME280;42891;50.006;21.964;2022-12-07T00:57:05;98475.50;;;2.48;94.85
57000;BME280;42891;50.006;21.964;2022-12-07T01:01:06;98484.34;;;2.45;95.26
57000;BME280;42891;50.006;21.964;2022-12-07T01:05:08;98461.06;;;2.29;94.81
57000;BME280;42891;50.006;21.964;2022-12-07T01:09:08;98461.16;;;2.55;94.41
57000;BME280;42891;50.006;21.964;2022-12-07T01:13:08;98462.06;;;2.54;94.42
57000;BME280;42891;50.006;21.964;2022-12-07T01:17:09;98447.41;;;2.53;94.46
57000;BME280;42891;50.006;21.964;2022-12-07T01:21:18;98453.88;;;2.60;94.08
57000;BME280;42891;50.006;21.964;2022-12-07T01:25:20;98453.31;;;2.55;94.40
57000;BME280;42891;50.006;21.964;2022-12-07T01:29:20;98452.88;;;2.48;94.77
57000;BME280;42891;50.006;21.964;2022-12-07T01:33:21;98452.09;;;2.61;94.51
57000;BME280;42891;50.006;21.964;2022-12-07T01:37:21;98452.41;;;2.56;94.61
57000;BME280;42891;50.006;21.964;2022-12-07T01:41:23;98452.53;;;2.67;94.36
57000;BME280;42891;50.006;21.964;2022-12-07T01:45:44;98458.53;;;2.55;95.32
57000;BME280;42891;50.006;21.964;2022-12-07T01:49:48;98448.91;;;2.70;94.94
57000;BME280;42891;50.006;21.964;2022-12-07T01:53:48;98433.75;;;2.62;93.99
57000;BME280;42891;50.006;21.964;2022-12-07T01:57:52;98462.75;;;2.70;93.82
57000;BME280;42891;50.006;21.964;2022-12-07T02:01:55;98456.41;;;2.75;94.02
57000;BME280;42891;50.006;21.964;2022-12-07T02:05:56;98450.34;;;2.61;94.63
57000;BME280;42891;50.006;21.964;2022-12-07T02:09:57;98456.63;;;2.71;94.00
57000;BME280;42891;50.006;21.964;2022-12-07T02:13:57;98447.25;;;2.42;95.49
57000;BME280;42891;50.006;21.964;2022-12-07T02:22:18;98465.69;;;2.66;94.63
57000;BME280;42891;50.006;21.964;2022-12-07T02:26:43;98445.38;;;2.71;94.23
57000;BME280;42891;50.006;21.964;2022-12-07T02:30:48;98451.31;;;2.73;94.10
57000;BME280;42891;50.006;21.964;2022-12-07T02:34:55;98462.44;;;3.02;93.41
57000;BME280;42891;50.006;21.964;2022-12-07T02:39:03;98457.41;;;2.99;92.32
57000;BME280;42891;50.006;21.964;2022-12-07T02:43:11;98451.28;;;3.13;92.19
57000;BME280;42891;50.006;21.964;2022-12-07T02:47:15;98442.09;;;2.95;91.85
57000;BME280;42891;50.006;21.964;2022-12-07T02:51:18;98459.06;;;2.87;92.71
57000;BME280;42891;50.006;21.964;2022-12-07T02:55:24;98456.88;;;2.94;92.30
57000;BME280;42891;50.006;21.964;2022-12-07T03:09:53;98436.31;;;2.49;93.77
57000;BME280;42891;50.006;21.964;2022-12-07T03:13:52;98440.75;;;2.62;93.86
57000;BME280;42891;50.006;21.964;2022-12-07T03:17:55;98445.13;;;2.61;93.83
57000;BME280;42891;50.006;21.964;2022-12-07T03:22:00;98436.28;;;2.64;93.92
57000;BME280;42891;50.006;21.964;2022-12-07T03:26:02;98444.84;;;2.79;93.16
57000;BME280;42891;50.006;21.964;2022-12-07T03:30:08;98415.16;;;2.54;93.92
57000;BME280;42891;50.006;21.964;2022-12-07T03:34:15;98428.59;;;2.75;93.72
57000;BME280;42891;50.006;21.964;2022-12-07T03:38:22;98396.97;;;2.67;93.10
57000;BME280;42891;50.006;21.964;2022-12-07T03:42:23;98418.88;;;2.77;92.93
57000;BME280;42891;50.006;21.964;2022-12-07T03:50:44;98420.78;;;3.01;92.11
57000;BME280;42891;50.006;21.964;2022-12-07T03:55:15;98419.16;;;3.13;91.72
57000;BME280;42891;50.006;21.964;2022-12-07T03:59:18;98406.00;;;3.14;92.25
57000;BME280;42891;50.006;21.964;2022-12-07T04:03:19;98411.13;;;3.16;91.84
57000;BME280;42891;50.006;21.964;2022-12-07T04:07:20;98382.72;;;2.98;92.03
57000;BME280;42891;50.006;21.964;2022-12-07T04:11:20;98402.53;;;3.14;91.85
57000;BME280;42891;50.006;21.964;2022-12-07T04:15:20;98414.03;;;3.24;91.89
57000;BME280;42891;50.006;21.964;2022-12-07T04:19:22;98418.72;;;3.32;91.50
57000;BME280;42891;50.006;21.964;2022-12-07T04:23:23;98402.16;;;3.20;91.31
57000;BME280;42891;50.006;21.964;2022-12-07T04:27:23;98400.38;;;3.33;91.18
57000;BME280;42891;50.006;21.964;2022-12-07T04:31:23;98394.31;;;3.20;90.71
57000;BME280;42891;50.006;21.964;2022-12-07T04:35:24;98391.06;;;3.16;91.15
57000;BME280;42891;50.006;21.964;2022-12-07T04:39:27;98397.00;;;3.44;91.04
57000;BME280;42891;50.006;21.964;2022-12-07T04:43:27;98380.00;;;3.38;90.15
57000;BME280;42891;50.006;21.964;2022-12-07T04:47:27;98388.56;;;3.40;90.10
57000;BME280;42891;50.006;21.964;2022-12-07T04:51:28;98352.91;;;3.15;90.68
57000;BME280;42891;50.006;21.964;2022-12-07T04:55:29;98385.66;;;3.32;90.58
57000;BME280;42891;50.006;21.964;2022-12-07T04:59:29;98392.41;;;3.22;90.53
57000;BME280;42891;50.006;21.964;2022-12-07T05:03:29;98373.44;;;3.33;90.93
57000;BME280;42891;50.006;21.964;2022-12-07T05:07:30;98368.22;;;3.33;89.97
57000;BME280;42891;50.006;21.964;2022-12-07T05:11:30;98385.09;;;3.40;89.61
57000;BME280;42891;50.006;21.964;2022-12-07T05:15:39;98370.72;;;3.21;90.15
57000;BME280;42891;50.006;21.964;2022-12-07T05:19:39;98377.19;;;3.29;89.56
57000;BME280;42891;50.006;21.964;2022-12-07T05:23:39;98383.13;;;3.44;89.32
57000;BME280;42891;50.006;21.964;2022-12-07T05:27:40;98385.00;;;3.54;89.56
57000;BME280;42891;50.006;21.964;2022-12-07T05:31:40;98375.38;;;3.55;89.89
57000;BME280;42891;50.006;21.964;2022-12-07T05:35:40;98367.06;;;3.37;89.93
57000;BME280;42891;50.006;21.964;2022-12-07T05:39:41;98384.91;;;3.17;91.14
57000;BME280;42891;50.006;21.964;2022-12-07T05:43:42;98372.72;;;3.05;91.38
57000;BME280;42891;50.006;21.964;2022-12-07T05:47:43;98379.72;;;3.04;91.80
57000;BME280;42891;50.006;21.964;2022-12-07T05:51:43;98388.47;;;3.16;91.40
57000;BME280;42891;50.006;21.964;2022-12-07T05:55:43;98381.56;;;3.02;91.00
57000;BME280;42891;50.006;21.964;2022-12-07T05:59:44;98390.75;;;3.08;91.26
57000;BME280;42891;50.006;21.964;2022-12-07T06:03:44;98385.56;;;3.21;91.39
57000;BME280;42891;50.006;21.964;2022-12-07T06:07:45;98373.41;;;2.94;91.40
57000;BME280;42891;50.006;21.964;2022-12-07T06:11:45;98375.31;;;2.79;92.85
57000;BME280;42891;50.006;21.964;2022-12-07T06:16:04;98387.25;;;2.56;94.51
57000;BME280;42891;50.006;21.964;2022-12-07T06:20:05;98387.63;;;2.50;94.42
57000;BME280;42891;50.006;21.964;2022-12-07T06:24:06;98384.50;;;2.45;94.89
57000;BME280;42891;50.006;21.964;2022-12-07T06:28:07;98377.94;;;2.52;94.92
57000;BME280;42891;50.006;21.964;2022-12-07T06:32:07;98379.09;;;2.61;94.82
57000;BME280;42891;50.006;21.964;2022-12-07T06:36:08;98384.84;;;2.53;94.43
57000;BME280;42891;50.006;21.964;2022-12-07T06:40:09;98381.03;;;2.44;95.14
57000;BME280;42891;50.006;21.964;2022-12-07T06:44:09;98385.03;;;2.50;95.44
57000;BME280;42891;50.006;21.964;2022-12-07T06:48:09;98389.31;;;2.51;95.87
57000;BME280;42891;50.006;21.964;2022-12-07T06:52:10;98386.50;;;2.54;95.67
57000;BME280;42891;50.006;21.964;2022-12-07T06:56:10;98363.28;;;2.24;96.13
57000;BME280;42891;50.006;21.964;2022-12-07T07:00:11;98382.78;;;2.31;96.14
57000;BME280;42891;50.006;21.964;2022-12-07T07:04:11;98382.97;;;2.55;95.40
57000;BME280;42891;50.006;21.964;2022-12-07T07:08:13;98389.44;;;2.62;95.73
57000;BME280;42891;50.006;21.964;2022-12-07T07:12:13;98389.25;;;2.65;95.30
57000;BME280;42891;50.006;21.964;2022-12-07T07:16:14;98394.97;;;2.58;94.74
57000;BME280;42891;50.006;21.964;2022-12-07T07:20:14;98402.56;;;2.61;94.97
57000;BME280;42891;50.006;21.964;2022-12-07T07:24:14;98380.66;;;2.50;95.20
57000;BME280;42891;50.006;21.964;2022-12-07T07:28:15;98404.56;;;2.57;96.11
57000;BME280;42891;50.006;21.964;2022-12-07T07:32:16;98390.75;;;2.42;96.53
57000;BME280;42891;50.006;21.964;2022-12-07T07:36:16;98399.13;;;2.60;95.99
57000;BME280;42891;50.006;21.964;2022-12-07T07:40:16;98372.38;;;2.31;95.57
57000;BME280;42891;50.006;21.964;2022-12-07T07:44:16;98380.53;;;2.39;95.78
57000;BME280;42891;50.006;21.964;2022-12-07T07:48:17;98383.66;;;2.44;95.48
57000;BME280;42891;50.006;21.964;2022-12-07T07:52:17;98405.69;;;2.53;96.20
57000;BME280;42891;50.006;21.964;2022-12-07T07:56:17;98396.00;;;2.55;95.51
57000;BME280;42891;50.006;21.964;2022-12-07T08:00:18;98373.88;;;2.48;95.40
57000;BME280;42891;50.006;21.964;2022-12-07T08:04:18;98406.03;;;2.61;95.48
57000;BME280;42891;50.006;21.964;2022-12-07T08:08:19;98412.88;;;2.49;95.94
57000;BME280;42891;50.006;21.964;2022-12-07T08:12:19;98411.13;;;2.63;95.76
57000;BME280;42891;50.006;21.964;2022-12-07T08:16:19;98414.31;;;2.41;96.37
57000;BME280;42891;50.006;21.964;2022-12-07T08:20:20;98392.31;;;2.45;96.09
57000;BME280;42891;50.006;21.964;2022-12-07T08:24:20;98410.84;;;2.40;96.56
57000;BME280;42891;50.006;21.964;2022-12-07T08:28:20;98429.25;;;2.51;96.72
57000;BME280;42891;50.006;21.964;2022-12-07T08:32:21;98419.75;;;2.50;96.05
57000;BME280;42891;50.006;21.964;2022-12-07T08:36:21;98428.19;;;2.54;95.64
57000;BME280;42891;50.006;21.964;2022-12-07T08:40:23;98431.31;;;2.73;95.73
57000;BME280;42891;50.006;21.964;2022-12-07T08:44:23;98431.13;;;2.62;95.44
57000;BME280;42891;50.006;21.964;2022-12-07T08:48:24;98439.00;;;2.75;95.73
57000;BME280;42891;50.006;21.964;2022-12-07T08:52:25;98435.22;;;2.66;95.63
57000;BME280;42891;50.006;21.964;2022-12-07T08:56:25;98426.47;;;2.67;95.86
57000;BME280;42891;50.006;21.964;2022-12-07T09:00:26;98431.22;;;2.88;95.29
57000;BME280;42891;50.006;21.964;2022-12-07T09:04:27;98442.69;;;2.58;95.25
57000;BME280;42891;50.006;21.964;2022-12-07T09:08:33;98427.72;;;2.34;96.15
57000;BME280;42891;50.006;21.964;2022-12-07T09:12:34;98430.38;;;2.47;96.94
57000;BME280;42891;50.006;21.964;2022-12-07T09:16:35;98427.22;;;2.42;96.30
57000;BME280;42891;50.006;21.964;2022-12-07T09:20:35;98429.91;;;2.28;97.35
57000;BME280;42891;50.006;21.964;2022-12-07T09:24:35;98417.28;;;2.34;97.41
57000;BME280;42891;50.006;21.964;2022-12-07T09:28:36;98409.31;;;2.23;97.99
57000;BME280;42891;50.006;21.964;2022-12-07T09:32:36;98401.63;;;2.21;97.58
57000;BME280;42891;50.006;21.964;2022-12-07T09:36:37;98417.34;;;2.20;97.44
57000;BME280;42891;50.006;21.964;2022-12-07T09:40:37;98414.09;;;2.44;97.62
57000;BME280;42891;50.006;21.964;2022-12-07T09:44:40;98410.13;;;2.38;97.72
57000;BME280;42891;50.006;21.964;2022-12-07T09:48:41;98415.69;;;2.46;97.74
57000;BME280;42891;50.006;21.964;2022-12-07T09:52:44;98409.56;;;2.33;97.59
57000;BME280;42891;50.006;21.964;2022-12-07T09:56:45;98395.81;;;2.31;98.07
57000;BME280;42891;50.006;21.964;2022-12-07T10:00:45;98395.16;;;2.27;97.15
57000;BME280;42891;50.006;21.964;2022-12-07T10:04:46;98388.25;;;2.13;98.07
57000;BME280;42891;50.006;21.964;2022-12-07T10:08:46;98407.31;;;2.41;97.79
57000;BME280;42891;50.006;21.964;2022-12-07T10:13:01;98401.47;;;2.37;97.40
57000;BME280;42891;50.006;21.964;2022-12-07T10:17:02;98401.97;;;2.30;97.28
57000;BME280;42891;50.006;21.964;2022-12-07T10:21:15;98385.69;;;2.26;97.34
57000;BME280;42891;50.006;21.964;2022-12-07T10:25:19;98403.28;;;2.22;97.77
57000;BME280;42891;50.006;21.964;2022-12-07T10:29:32;98413.38;;;2.42;97.49
57000;BME280;42891;50.006;21.964;2022-12-07T10:33:52;98412.47;;;2.55;96.79
57000;BME280;42891;50.006;21.964;2022-12-07T10:37:57;98406.72;;;2.50;96.85
57000;BME280;42891;50.006;21.964;2022-12-07T10:42:03;98400.72;;;2.35;97.36
57000;BME280;42891;50.006;21.964;2022-12-07T10:50:43;98404.13;;;2.50;97.45
57000;BME280;42891;50.006;21.964;2022-12-07T10:59:44;98410.94;;;2.79;96.83
57000;BME280;42891;50.006;21.964;2022-12-07T11:13:16;98370.94;;;2.39;96.81
57000;BME280;42891;50.006;21.964;2022-12-07T11:17:25;98406.06;;;3.00;96.40
57000;BME280;42891;50.006;21.964;2022-12-07T11:34:15;98391.06;;;2.90;97.09
57000;BME280;42891;50.006;21.964;2022-12-07T11:38:28;98383.34;;;2.89;97.12
57000;BME280;42891;50.006;21.964;2022-12-07T11:42:41;98398.50;;;3.10;96.65
57000;BME280;42891;50.006;21.964;2022-12-07T11:46:49;98402.03;;;2.96;95.79
57000;BME280;42891;50.006;21.964;2022-12-07T11:50:54;98384.78;;;2.80;95.25
57000;BME280;42891;50.006;21.964;2022-12-07T11:54:57;98408.41;;;3.04;95.72
57000;BME280;42891;50.006;21.964;2022-12-07T11:59:19;98407.78;;;3.27;95.29
57000;BME280;42891;50.006;21.964;2022-12-07T12:03:31;98391.38;;;3.12;94.51
57000;BME280;42891;50.006;21.964;2022-12-07T12:07:34;98400.03;;;2.99;93.26
57000;BME280;42891;50.006;21.964;2022-12-07T12:24:18;98385.84;;;3.16;93.51
57000;BME280;42891;50.006;21.964;2022-12-07T12:32:40;98389.09;;;3.20;92.17
57000;BME280;42891;50.006;21.964;2022-12-07T12:40:42;98408.19;;;3.20;92.68
57000;BME280;42891;50.006;21.964;2022-12-07T12:45:03;98397.63;;;3.22;92.14
57000;BME280;42891;50.006;21.964;2022-12-07T12:53:25;98385.84;;;3.03;91.30
57000;BME280;42891;50.006;21.964;2022-12-07T12:57:31;98406.06;;;2.87;90.56
57000;BME280;42891;50.006;21.964;2022-12-07T13:05:35;98395.75;;;2.98;90.27
57000;BME280;42891;50.006;21.964;2022-12-07T13:09:35;98402.97;;;3.07;90.26
57000;BME280;42891;50.006;21.964;2022-12-07T13:13:36;98396.06;;;2.94;89.96
57000;BME280;42891;50.006;21.964;2022-12-07T13:21:43;98401.28;;;2.94;88.85
57000;BME280;42891;50.006;21.964;2022-12-07T13:26:19;98406.63;;;3.05;89.52
57000;BME280;42891;50.006;21.964;2022-12-07T13:30:21;98367.50;;;2.79;88.83
57000;BME280;42891;50.006;21.964;2022-12-07T13:38:35;98416.13;;;3.32;89.23
57000;BME280;42891;50.006;21.964;2022-12-07T13:42:37;98404.00;;;3.05;88.07
57000;BME280;42891;50.006;21.964;2022-12-07T13:46:46;98408.59;;;3.40;88.82
57000;BME280;42891;50.006;21.964;2022-12-07T13:50:53;98412.88;;;3.41;88.66
57000;BME280;42891;50.006;21.964;2022-12-07T13:55:01;98406.72;;;3.42;88.65
57000;BME280;42891;50.006;21.964;2022-12-07T13:59:13;98395.84;;;3.48;88.10
57000;BME280;42891;50.006;21.964;2022-12-07T14:07:28;98406.72;;;3.42;88.31
57000;BME280;42891;50.006;21.964;2022-12-07T14:11:29;98419.47;;;3.60;89.05
57000;BME280;42891;50.006;21.964;2022-12-07T14:15:32;98414.13;;;3.35;89.03
57000;BME280;42891;50.006;21.964;2022-12-07T14:19:49;98425.31;;;3.50;89.39
57000;BME280;42891;50.006;21.964;2022-12-07T14:24:16;98425.84;;;3.55;88.92
57000;BME280;42891;50.006;21.964;2022-12-07T14:28:35;98412.25;;;3.24;89.34
57000;BME280;42891;50.006;21.964;2022-12-07T14:32:37;98385.03;;;3.29;89.51
57000;BME280;42891;50.006;21.964;2022-12-07T14:36:37;98406.09;;;3.51;89.65
57000;BME280;42891;50.006;21.964;2022-12-07T14:40:38;98399.63;;;3.44;89.44
57000;BME280;42891;50.006;21.964;2022-12-07T14:44:39;98409.31;;;3.55;89.86
57000;BME280;42891;50.006;21.964;2022-12-07T14:48:39;98416.13;;;3.57;89.91
57000;BME280;42891;50.006;21.964;2022-12-07T14:52:40;98424.47;;;3.63;90.09
57000;BME280;42891;50.006;21.964;2022-12-07T14:56:41;98418.09;;;3.41;91.33
57000;BME280;42891;50.006;21.964;2022-12-07T15:00:44;98416.34;;;3.29;91.36
57000;BME280;42891;50.006;21.964;2022-12-07T15:04:45;98402.69;;;3.25;91.77
57000;BME280;42891;50.006;21.964;2022-12-07T15:08:45;98412.78;;;3.17;91.74
57000;BME280;42891;50.006;21.964;2022-12-07T15:12:46;98410.47;;;3.12;92.43
57000;BME280;42891;50.006;21.964;2022-12-07T15:16:46;98416.13;;;3.06;92.29
57000;BME280;42891;50.006;21.964;2022-12-07T15:20:47;98417.38;;;3.13;92.51
57000;BME280;42891;50.006;21.964;2022-12-07T15:24:47;98421.34;;;3.19;91.97
57000;BME280;42891;50.006;21.964;2022-12-07T15:28:48;98419.88;;;3.15;91.71
57000;BME280;42891;50.006;21.964;2022-12-07T15:32:52;98413.19;;;3.11;91.41
57000;BME280;42891;50.006;21.964;2022-12-07T15:36:52;98414.75;;;3.00;91.76
57000;BME280;42891;50.006;21.964;2022-12-07T15:40:52;98431.44;;;3.11;91.53
57000;BME280;42891;50.006;21.964;2022-12-07T15:44:53;98435.53;;;3.15;91.69
57000;BME280;42891;50.006;21.964;2022-12-07T15:49:11;98437.63;;;3.10;91.65
57000;BME280;42891;50.006;21.964;2022-12-07T15:53:12;98432.09;;;3.01;91.94
57000;BME280;42891;50.006;21.964;2022-12-07T15:57:13;98428.63;;;3.01;91.97
57000;BME280;42891;50.006;21.964;2022-12-07T16:01:15;98446.25;;;2.97;91.77
57000;BME280;42891;50.006;21.964;2022-12-07T16:05:16;98449.50;;;3.01;91.98
57000;BME280;42891;50.006;21.964;2022-12-07T16:09:16;98440.97;;;3.12;91.98
57000;BME280;42891;50.006;21.964;2022-12-07T16:13:17;98440.25;;;3.10;91.27
57000;BME280;42891;50.006;21.964;2022-12-07T16:17:19;98438.56;;;3.09;91.47
57000;BME280;42891;50.006;21.964;2022-12-07T16:21:19;98456.81;;;3.09;91.48
57000;BME280;42891;50.006;21.964;2022-12-07T16:25:20;98448.25;;;3.06;91.50
57000;BME280;42891;50.006;21.964;2022-12-07T16:29:21;98445.53;;;3.08;90.82
57000;BME280;42891;50.006;21.964;2022-12-07T16:33:22;98447.59;;;2.90;90.80
57000;BME280;42891;50.006;21.964;2022-12-07T18:26:49;98480.91;;;2.03;91.53
57000;BME280;42891;50.006;21.964;2022-12-07T18:30:50;98477.66;;;1.99;91.26
57000;BME280;42891;50.006;21.964;2022-12-07T18:34:50;98467.88;;;2.03;90.66
57000;BME280;42891;50.006;21.964;2022-12-07T18:38:51;98457.75;;;1.98;89.97
57000;BME280;42891;50.006;21.964;2022-12-07T18:42:51;98477.09;;;2.09;89.32
57000;BME280;42891;50.006;21.964;2022-12-07T18:46:51;98481.63;;;2.19;89.79
57000;BME280;42891;50.006;21.964;2022-12-07T18:51:00;98477.66;;;2.41;88.45
57000;BME280;42891;50.006;21.964;2022-12-07T18:55:01;98480.28;;;2.68;87.40
57000;BME280;42891;50.006;21.964;2022-12-07T18:59:03;98486.34;;;2.82;86.25
57000;BME280;42891;50.006;21.964;2022-12-07T19:03:22;98484.09;;;2.90;85.54
57000;BME280;42891;50.006;21.964;2022-12-07T19:07:22;98490.13;;;2.78;85.42
57000;BME280;42891;50.006;21.964;2022-12-07T19:11:28;98489.97;;;2.94;85.13
57000;BME280;42891;50.006;21.964;2022-12-07T19:15:47;98486.63;;;2.92;84.80
57000;BME280;42891;50.006;21.964;2022-12-07T19:19:48;98481.91;;;2.84;85.20
57000;BME280;42891;50.006;21.964;2022-12-07T19:23:48;98482.03;;;2.95;84.71
57000;BME280;42891;50.006;21.964;2022-12-07T19:27:48;98466.66;;;2.78;84.54
57000;BME280;42891;50.006;21.964;2022-12-07T19:31:49;98455.94;;;2.82;84.84
57000;BME280;42891;50.006;21.964;2022-12-07T19:35:49;98463.88;;;2.94;83.42
57000;BME280;42891;50.006;21.964;2022-12-07T19:39:49;98486.00;;;3.01;83.63
57000;BME280;42891;50.006;21.964;2022-12-07T19:43:50;98481.09;;;2.96;82.71
57000;BME280;42891;50.006;21.964;2022-12-07T19:47:51;98482.47;;;2.75;83.33
57000;BME280;42891;50.006;21.964;2022-12-07T19:51:53;98487.00;;;2.85;83.50
57000;BME280;42891;50.006;21.964;2022-12-07T19:55:54;98484.81;;;2.79;82.82
57000;BME280;42891;50.006;21.964;2022-12-07T19:59:54;98496.22;;;2.64;84.01
57000;BME280;42891;50.006;21.964;2022-12-07T20:03:56;98494.06;;;2.43;84.06
57000;BME280;42891;50.006;21.964;2022-12-07T20:07:56;98491.09;;;2.20;85.14
57000;BME280;42891;50.006;21.964;2022-12-07T20:11:57;98474.44;;;2.23;84.64
57000;BME280;42891;50.006;21.964;2022-12-07T20:16:16;98491.00;;;2.22;84.94
57000;BME280;42891;50.006;21.964;2022-12-07T20:20:16;98465.91;;;2.21;84.45
57000;BME280;42891;50.006;21.964;2022-12-07T20:24:20;98495.84;;;2.28;84.25
57000;BME280;42891;50.006;21.964;2022-12-07T20:28:20;98494.16;;;2.42;84.54
57000;BME280;42891;50.006;21.964;2022-12-07T20:32:21;98491.75;;;2.24;83.95
57000;BME280;42891;50.006;21.964;2022-12-07T20:36:22;98494.56;;;2.48;83.58
57000;BME280;42891;50.006;21.964;2022-12-07T20:40:22;98499.31;;;2.56;83.48
57000;BME280;42891;50.006;21.964;2022-12-07T20:44:23;98496.88;;;2.26;82.94
57000;BME280;42891;50.006;21.964;2022-12-07T20:48:23;98491.66;;;2.26;83.09
57000;BME280;42891;50.006;21.964;2022-12-07T20:52:23;98510.06;;;2.37;83.01
57000;BME280;42891;50.006;21.964;2022-12-07T20:56:26;98504.88;;;2.08;83.89
57000;BME280;42891;50.006;21.964;2022-12-07T21:00:27;98497.25;;;2.19;83.80
57000;BME280;42891;50.006;21.964;2022-12-07T21:04:28;98509.78;;;2.27;83.42
57000;BME280;42891;50.006;21.964;2022-12-07T21:08:28;98509.34;;;2.20;83.30
57000;BME280;42891;50.006;21.964;2022-12-07T21:12:28;98513.59;;;2.36;83.20
57000;BME280;42891;50.006;21.964;2022-12-07T21:16:29;98516.03;;;2.39;83.17
57000;BME280;42891;50.006;21.964;2022-12-07T21:20:31;98522.34;;;2.35;82.35
57000;BME280;42891;50.006;21.964;2022-12-07T21:24:31;98514.81;;;2.45;82.55
57000;BME280;42891;50.006;21.964;2022-12-07T21:28:31;98508.47;;;2.34;83.73
57000;BME280;42891;50.006;21.964;2022-12-07T21:32:32;98513.19;;;2.00;83.61
57000;BME280;42891;50.006;21.964;2022-12-07T21:36:32;98510.38;;;2.03;84.60
57000;BME280;42891;50.006;21.964;2022-12-07T21:40:33;98507.03;;;1.87;84.60
57000;BME280;42891;50.006;21.964;2022-12-07T21:44:33;98503.03;;;1.81;85.40
57000;BME280;42891;50.006;21.964;2022-12-07T21:48:34;98501.19;;;1.98;84.86
57000;BME280;42891;50.006;21.964;2022-12-07T21:52:34;98480.91;;;1.88;84.73
57000;BME280;42891;50.006;21.964;2022-12-07T21:56:37;98501.09;;;1.85;85.44
57000;BME280;42891;50.006;21.964;2022-12-07T22:00:38;98506.38;;;1.98;85.24
57000;BME280;42891;50.006;21.964;2022-12-07T22:04:39;98502.00;;;2.13;84.45
57000;BME280;42891;50.006;21.964;2022-12-07T22:08:40;98474.31;;;1.97;83.88
57000;BME280;42891;50.006;21.964;2022-12-07T22:12:40;98506.38;;;2.12;83.71
57000;BME280;42891;50.006;21.964;2022-12-07T22:16:40;98509.06;;;2.25;83.91
57000;BME280;42891;50.006;21.964;2022-12-07T22:20:41;98512.22;;;2.16;82.59
57000;BME280;42891;50.006;21.964;2022-12-07T22:24:41;98519.69;;;1.93;83.65
57000;BME280;42891;50.006;21.964;2022-12-07T22:28:45;98493.56;;;1.66;84.88
57000;BME280;42891;50.006;21.964;2022-12-07T22:32:46;98511.69;;;1.96;84.34
57000;BME280;42891;50.006;21.964;2022-12-07T22:36:46;98511.22;;;2.04;84.92
57000;BME280;42891;50.006;21.964;2022-12-07T22:40:47;98514.19;;;1.98;84.02
57000;BME280;42891;50.006;21.964;2022-12-07T22:44:47;98517.91;;;1.94;84.42
57000;BME280;42891;50.006;21.964;2022-12-07T22:48:48;98527.78;;;1.88;84.57
57000;BME280;42891;50.006;21.964;2022-12-07T22:52:49;98528.22;;;1.66;85.11
57000;BME280;42891;50.006;21.964;2022-12-07T22:56:52;98519.88;;;1.61;85.44
57000;BME280;42891;50.006;21.964;2022-12-07T23:00:52;98529.69;;;1.56;85.61
57000;BME280;42891;50.006;21.964;2022-12-07T23:04:52;98530.72;;;1.68;86.08
57000;BME280;42891;50.006;21.964;2022-12-07T23:08:55;98532.41;;;1.69;85.48
57000;BME280;42891;50.006;21.964;2022-12-07T23:12:55;98525.06;;;1.76;85.40
57000;BME280;42891;50.006;21.964;2022-12-07T23:17:14;98537.66;;;1.83;84.73
57000;BME280;42891;50.006;21.964;2022-12-07T23:21:14;98533.16;;;1.71;84.94
57000;BME280;42891;50.006;21.964;2022-12-07T23:25:15;98518.03;;;1.78;84.08
57000;BME280;42891;50.006;21.964;2022-12-07T23:29:15;98536.34;;;1.91;84.43
57000;BME280;42891;50.006;21.964;2022-12-07T23:33:15;98527.03;;;2.01;83.97
57000;BME280;42891;50.006;21.964;2022-12-07T23:37:16;98522.56;;;2.03;83.77
57000;BME280;42891;50.006;21.964;2022-12-07T23:41:22;98519.59;;;2.09;83.48
57000;BME280;42891;50.006;21.964;2022-12-07T23:45:22;98541.34;;;2.22;82.34
57000;BME280;42891;50.006;21.964;2022-12-07T23:49:23;98529.66;;;2.15;82.41
57000;BME280;42891;50.006;21.964;2022-12-07T23:53:24;98539.13;;;2.31;81.50
57000;BME280;42891;50.006;21.964;2022-12-07T23:57:27;98511.22;;;2.18;82.18
